Cody, WY

7:11 PM MDT on September 18, 2014 (GMT -0600)
RAWS RATTLESNAKE MTN. WY US | Change Station
CLOSE
Current Station
Personal Weather Station
Location: Cody, WY
Elevation: 8400 ft
Nearby Weather Stations

Elev 8400 ft 44.57 °N, 109.26 °W | Updated 1 hour ago

Overcast
Overcast
59 °F
Feels Like 59 °F
N
6
Wind Variable Wind from South
Gusts 14.0 mph

Today
High -- | Low -- °F
--% Chance of Precip.
Yesterday
High -- | Low -- °F
Precip. -- in
6:59 AM 7:21 PM
Waning Crescent, 23% visible
Pressure 29.70 in
Visibility 9.0 miles
Clouds Few 4700 ft
Scattered Clouds 9000 ft
Overcast 12000 ft
Dew Point 45 °F
Humidity 60%
Rainfall 0.04 in
Snow Depth 1 in , 0 in , 2 in
UV 0 out of 12
Pollen 6.10 out of 12
Air Quality Not available.
Flu Activity Not available.
METAR KGEY 190053Z AUTO VRB06KT 9SM -TSRA FEW047 SCT090 OVC120 23/11 A2977 RMK AO2 LTG DSNT NE AND SW AND NW RAB21E37B50 TSB38 SLP056 P0001 T02330111

More Conditions Fewer Conditions

Pressure 29.70 in
Visibility 9.0 miles
Clouds Few 4700 ft
Scattered Clouds 9000 ft
Overcast 12000 ft
Dew Point 45 °F
Humidity 60%
Rainfall 0.04 in
Snow Depth 1 in , 0 in , 2 in
UV 0 out of 12
Pollen 6.10 out of 12
Air Quality Not available.
Flu Activity Not available.
METAR KGEY 190053Z AUTO VRB06KT 9SM -TSRA FEW047 SCT090 OVC120 23/11 A2977 RMK AO2 LTG DSNT NE AND SW AND NW RAB21E37B50 TSB38 SLP056 P0001 T02330111

More Conditions Fewer Conditions

10-Day Weather Forecast

Almanac

Astronomy

Sep. 18, 2014 Rise Set
Actual Time 6:59 AM MDT 7:21 PM MDT
Civil Twilight 6:30 AM MDT 7:51 PM MDT
Nautical Twilight 5:55 AM MDT 8:25 PM MDT
Astronomical Twilight 5:20 AM MDT 9:00 PM MDT
Moon 1:45 AM MDT (9/18) 4:23 PM MDT (9/18)
Length of Visible Light 13h 20m
Length of Day
12h 22m
Tomorrow will be 3m 4s shorter.
Waning Crescent, 23% of the Moon is Illuminated
Today
Waning Crescent
Sep 24
New
Oct 1
First Quarter
Oct 8
Full
Oct 15
Last Quarter

Today's Extremes

State Highs State Lows

Community

WunderPhotos

Upload Photos

1,754,510 photos uploaded!

Nearby

Snow Depth

Station Depth Elevation
Blind Bull Summit 1 in 8900 ft
Base Camp 0 in 7030 ft
Willow Creek 2 in 8450 ft
Lewis Lake Divide 0 in 7850 ft
Kendall R.S. 0 in 7740 ft

Earthquake Activity

City Distance Mag. Time & Date
No recent earthquake activity has been reported nearby.
Minimum magnitude displayed is 2.5.

Coastal Water Temperatures

Place Temperature
No Stations Reporting

Nearby Weather Stations